Time,TemperatureF,DewpointF,PressureIn,WindDirection,WindDirectionDegrees,WindSpeedMPH,WindSpeedGustMPH,Humidity,HourlyPrecipIn,Conditions,Clouds,dailyrainin,SolarRadiationWatts/m^2,SoftwareType,DateUTC
2013-03-24 00:02:00,72.1,70.6,29.83,SSE,154,4.0,4.0,95,0.00,,,0.00,0,Wunderground v.1.15,2013-03-24 04:02:00,
2013-03-24 00:12:00,72.1,70.6,29.82,SE,126,4.0,6.0,95,0.00,,,0.00,0,Wunderground v.1.15,2013-03-24 04:12:00,
2013-03-24 00:17:00,72.1,70.6,29.82,SE,131,4.0,8.0,95,0.00,,,0.00,0,Wunderground v.1.15,2013-03-24 04:17:00,
2013-03-24 00:27:00,72.3,70.8,29.81,SE,136,5.0,6.0,95,0.00,,,0.00,0,Wunderground v.1.15,2013-03-24 04:27:00,
2013-03-24 00:32:00,72.3,70.8,29.81,SE,128,5.0,8.0,95,0.00,,,0.00,0,Wunderground v.1.15,2013-03-24 04:32:00,
2013-03-24 00:37:00,72.3,70.8,29.81,SE,130,5.0,8.0,95,0.00,,,0.00,0,Wunderground v.1.15,2013-03-24 04:37:00,
2013-03-24 00:42:00,72.3,70.8,29.81,SSE,154,5.0,5.0,95,0.00,,,0.00,0,Wunderground v.1.15,2013-03-24 04:42:00,
2013-03-24 00:47:00,72.3,70.8,29.81,SSE,157,5.0,7.0,95,0.00,,,0.00,0,Wunderground v.1.15,2013-03-24 04:47:00,
2013-03-24 00:57:00,72.3,70.8,29.80,SSE,161,4.0,4.0,95,0.00,,,0.00,0,Wunderground v.1.15,2013-03-24 04:57:00,
2013-03-24 01:02:00,72.3,70.8,29.80,ESE,120,5.0,5.0,95,0.00,,,0.00,0,Wunderground v.1.15,2013-03-24 05:02:00,
2013-03-24 01:12:00,72.1,70.6,29.80,SE,130,4.0,4.0,95,0.00,,,0.00,0,Wunderground v.1.15,2013-03-24 05:12:00,
2013-03-24 01:22:00,72.1,70.6,29.80,SSE,147,4.0,5.0,95,0.00,,,0.00,0,Wunderground v.1.15,2013-03-24 05:22:00,
2013-03-24 01:32:00,72.0,70.5,29.79,SE,130,4.0,7.0,95,0.00,,,0.00,0,Wunderground v.1.15,2013-03-24 05:32:00,
2013-03-24 01:37:00,72.0,70.5,29.79,South,171,4.0,7.0,95,0.00,,,0.00,0,Wunderground v.1.15,2013-03-24 05:37:00,
2013-03-24 01:47:00,71.8,70.3,29.78,SE,133,3.0,4.0,95,0.00,,,0.00,0,Wunderground v.1.15,2013-03-24 05:47:00,
2013-03-24 01:57:00,71.8,70.3,29.78,SE,141,3.0,5.0,95,0.00,,,0.00,0,Wunderground v.1.15,2013-03-24 05:57:00,
2013-03-24 02:07:00,71.6,70.1,29.78,South,185,4.0,4.0,95,0.00,,,0.00,0,Wunderground v.1.15,2013-03-24 06:07:00,
2013-03-24 02:12:00,71.6,70.1,29.77,South,171,4.0,7.0,95,0.00,,,0.00,0,Wunderground v.1.15,2013-03-24 06:12:00,
2013-03-24 02:22:00,71.6,70.1,29.76,SSE,152,5.0,5.0,95,0.00,,,0.00,0,Wunderground v.1.15,2013-03-24 06:22:00,
2013-03-24 02:27:00,71.6,70.1,29.76,SSE,168,6.0,6.0,95,0.00,,,0.00,0,Wunderground v.1.15,2013-03-24 06:27:00,
2013-03-24 02:32:00,71.6,70.1,29.76,SE,136,6.0,6.0,95,0.00,,,0.00,0,Wunderground v.1.15,2013-03-24 06:32:00,
2013-03-24 02:42:00,71.5,70.0,29.76,South,179,5.0,5.0,95,0.00,,,0.00,0,Wunderground v.1.15,2013-03-24 06:42:00,
2013-03-24 02:47:00,71.5,70.0,29.75,SSE,150,5.0,10.0,95,0.00,,,0.00,0,Wunderground v.1.15,2013-03-24 06:47:00,
2013-03-24 02:57:00,71.5,70.0,29.75,SE,134,6.0,6.0,95,0.00,,,0.00,0,Wunderground v.1.15,2013-03-24 06:57:00,
2013-03-24 03:02:00,71.5,70.0,29.74,SE,127,6.0,8.0,95,0.00,,,0.00,0,Wunderground v.1.15,2013-03-24 07:02:00,
2013-03-24 03:12:00,71.3,69.8,29.74,SE,124,6.0,7.0,95,0.00,,,0.00,0,Wunderground v.1.15,2013-03-24 07:12:00,
2013-03-24 03:22:00,71.5,70.0,29.73,SE,124,7.0,7.0,95,0.00,,,0.00,0,Wunderground v.1.15,2013-03-24 07:22:00,
2013-03-24 03:27:00,71.5,70.0,29.73,SE,144,7.0,7.0,95,0.00,,,0.00,0,Wunderground v.1.15,2013-03-24 07:27:00,
2013-03-24 03:37:00,71.3,69.8,29.72,SE,134,6.0,8.0,95,0.00,,,0.00,0,Wunderground v.1.15,2013-03-24 07:37:00,
2013-03-24 03:42:00,71.3,69.8,29.72,SE,133,7.0,7.0,95,0.00,,,0.00,0,Wunderground v.1.15,2013-03-24 07:42:00,
2013-03-24 03:52:00,71.3,69.8,29.72,SSE,151,6.0,7.0,95,0.00,,,0.00,0,Wunderground v.1.15,2013-03-24 07:52:00,
2013-03-24 03:57:00,71.1,69.6,29.73,SE,131,4.0,7.0,95,0.00,,,0.00,0,Wunderground v.1.15,2013-03-24 07:57:00,
2013-03-24 04:02:00,71.1,69.6,29.73,ESE,116,4.0,4.0,95,0.00,,,0.00,0,Wunderground v.1.15,2013-03-24 08:02:00,
2013-03-24 04:12:00,70.9,69.4,29.73,SSE,151,3.0,4.0,95,0.00,,,0.00,0,Wunderground v.1.15,2013-03-24 08:12:00,
2013-03-24 04:17:00,70.9,69.4,29.72,SE,141,4.0,4.0,95,0.00,,,0.00,0,Wunderground v.1.15,2013-03-24 08:17:00,
2013-03-24 04:22:00,70.9,69.4,29.72,SE,137,4.0,4.0,95,0.00,,,0.00,0,Wunderground v.1.15,2013-03-24 08:22:00,
2013-03-24 04:32:00,70.8,69.3,29.72,SE,131,5.0,8.0,95,0.00,,,0.00,0,Wunderground v.1.15,2013-03-24 08:32:00,
2013-03-24 04:42:00,70.8,69.3,29.72,SSE,158,5.0,5.0,95,0.00,,,0.00,0,Wunderground v.1.15,2013-03-24 08:42:00,
2013-03-24 04:52:00,70.8,69.3,29.72,SE,140,5.0,5.0,95,0.00,,,0.00,0,Wunderground v.1.15,2013-03-24 08:52:00,
2013-03-24 04:57:00,70.8,69.3,29.72,SE,141,4.0,5.0,95,0.00,,,0.00,0,Wunderground v.1.15,2013-03-24 08:57:00,
2013-03-24 05:07:00,70.9,69.4,29.72,SE,124,3.0,6.0,95,0.00,,,0.00,0,Wunderground v.1.15,2013-03-24 09:07:00,
2013-03-24 05:12:00,70.9,69.4,29.72,SSE,162,3.0,3.0,95,0.00,,,0.00,0,Wunderground v.1.15,2013-03-24 09:12:00,
2013-03-24 05:22:00,71.5,70.0,29.72,SE,131,4.0,6.0,95,0.00,,,0.00,0,Wunderground v.1.15,2013-03-24 09:22:00,
2013-03-24 05:27:00,71.6,70.4,29.71,SE,145,6.0,6.0,96,0.00,,,0.00,0,Wunderground v.1.15,2013-03-24 09:27:00,
2013-03-24 05:37:00,72.1,70.6,29.71,South,181,6.0,7.0,95,0.00,,,0.00,0,Wunderground v.1.15,2013-03-24 09:37:00,
2013-03-24 05:47:00,72.3,70.8,29.71,South,176,7.0,8.0,95,0.00,,,0.00,0,Wunderground v.1.15,2013-03-24 09:47:00,
2013-03-24 05:52:00,72.3,70.8,29.71,SSE,152,7.0,10.0,95,0.00,,,0.00,0,Wunderground v.1.15,2013-03-24 09:52:00,
2013-03-24 05:57:00,72.5,71.0,29.70,SSE,152,8.0,10.0,95,0.00,,,0.00,0,Wunderground v.1.15,2013-03-24 09:57:00,
2013-03-24 06:02:00,72.5,71.0,29.70,South,174,8.0,8.0,95,0.00,,,0.00,0,Wunderground v.1.15,2013-03-24 10:02:00,
2013-03-24 06:12:00,72.5,71.0,29.70,SE,127,7.0,7.0,95,0.00,,,0.00,0,Wunderground v.1.15,2013-03-24 10:12:00,
2013-03-24 06:22:00,72.5,71.0,29.70,South,179,5.0,7.0,95,0.00,,,0.00,0,Wunderground v.1.15,2013-03-24 10:22:00,
2013-03-24 06:32:00,72.5,71.0,29.69,SE,126,6.0,6.0,95,0.00,,,0.00,0,Wunderground v.1.15,2013-03-24 10:32:00,
2013-03-24 06:37:00,72.5,71.0,29.70,SSE,160,6.0,9.0,95,0.00,,,0.00,0,Wunderground v.1.15,2013-03-24 10:37:00,
2013-03-24 06:47:00,72.7,71.2,29.69,SE,143,7.0,16.0,95,0.00,,,0.00,0,Wunderground v.1.15,2013-03-24 10:47:00,
2013-03-24 06:52:00,72.8,71.3,29.69,SW,222,8.0,9.0,95,0.00,,,0.00,0,Wunderground v.1.15,2013-03-24 10:52:00,
2013-03-24 07:02:00,73.0,71.5,29.69,SSW,206,6.0,9.0,95,0.00,,,0.00,0,Wunderground v.1.15,2013-03-24 11:02:00,
2013-03-24 07:07:00,73.0,71.5,29.69,SSW,209,7.0,9.0,95,0.00,,,0.00,0,Wunderground v.1.15,2013-03-24 11:07:00,
2013-03-24 07:17:00,73.0,71.2,29.70,SSE,164,6.0,11.0,94,0.00,,,0.00,0,Wunderground v.1.15,2013-03-24 11:17:00,
2013-03-24 07:27:00,72.8,71.0,29.70,SSE,151,7.0,7.0,94,0.00,,,0.00,0,Wunderground v.1.15,2013-03-24 11:27:00,
2013-03-24 07:37:00,72.5,70.7,29.70,South,174,7.0,7.0,94,0.00,,,0.00,0,Wunderground v.1.15,2013-03-24 11:37:00,
2013-03-24 07:52:00,72.3,70.5,29.70,SW,222,8.0,8.0,94,0.00,,,0.00,12,Wunderground v.1.15,2013-03-24 11:52:00,
2013-03-24 08:02:00,72.1,70.3,29.70,SSW,202,7.0,7.0,94,0.00,,,0.00,21,Wunderground v.1.15,2013-03-24 12:02:00,
2013-03-24 08:12:00,72.1,70.6,29.70,SSW,195,7.0,17.0,95,0.00,,,0.00,28,Wunderground v.1.15,2013-03-24 12:12:00,
2013-03-24 08:17:00,72.1,70.6,29.70,SSW,192,8.0,17.0,95,0.00,,,0.00,44,Wunderground v.1.15,2013-03-24 12:17:00,
2013-03-24 08:22:00,72.3,70.8,29.70,SSE,158,7.0,10.0,95,0.00,,,0.00,51,Wunderground v.1.15,2013-03-24 12:22:00,
2013-03-24 08:32:00,72.3,70.8,29.70,South,171,7.0,7.0,95,0.00,,,0.00,93,Wunderground v.1.15,2013-03-24 12:32:00,
2013-03-24 08:42:00,72.3,70.8,29.71,SSE,162,7.0,8.0,95,0.00,,,0.00,127,Wunderground v.1.15,2013-03-24 12:42:00,
2013-03-24 08:47:00,72.5,71.0,29.71,SSE,148,9.0,10.0,95,0.00,,,0.00,91,Wunderground v.1.15,2013-03-24 12:47:00,
2013-03-24 08:57:00,72.5,71.0,29.72,WSW,240,7.0,13.0,95,0.00,,,0.00,84,Wunderground v.1.15,2013-03-24 12:57:00,
2013-03-24 09:02:00,72.5,71.0,29.73,SSE,160,6.0,6.0,95,0.00,,,0.00,55,Wunderground v.1.15,2013-03-24 13:02:00,
2013-03-24 09:12:00,72.3,70.8,29.74,WSW,239,7.0,7.0,95,0.00,,,0.00,125,Wunderground v.1.15,2013-03-24 13:12:00,
2013-03-24 09:17:00,72.3,70.8,29.75,SSE,167,7.0,7.0,95,0.00,,,0.00,104,Wunderground v.1.15,2013-03-24 13:17:00,
2013-03-24 09:27:00,72.3,70.8,29.75,South,175,6.0,7.0,95,0.00,,,0.00,99,Wunderground v.1.15,2013-03-24 13:27:00,
2013-03-24 09:37:00,72.1,70.6,29.75,SW,223,6.0,7.0,95,0.00,,,0.00,90,Wunderground v.1.15,2013-03-24 13:37:00,
2013-03-24 09:47:00,72.1,70.6,29.76,SW,230,7.0,12.0,95,0.00,,,0.00,44,Wunderground v.1.15,2013-03-24 13:47:00,
2013-03-24 09:57:00,72.0,70.5,29.77,WSW,237,7.0,9.0,95,0.00,,,0.00,35,Wunderground v.1.15,2013-03-24 13:57:00,
2013-03-24 10:02:00,71.8,70.3,29.77,SW,224,7.0,7.0,95,0.00,,,0.00,28,Wunderground v.1.15,2013-03-24 14:02:00,
2013-03-24 10:12:00,71.8,70.3,29.77,South,185,5.0,12.0,95,0.00,,,0.00,146,Wunderground v.1.15,2013-03-24 14:12:00,
2013-03-24 10:17:00,71.8,70.3,29.77,SSE,167,5.0,12.0,95,0.00,,,0.00,127,Wunderground v.1.15,2013-03-24 14:17:00,
2013-03-24 10:27:00,72.0,70.5,29.77,South,182,6.0,9.0,95,0.00,,,0.00,204,Wunderground v.1.15,2013-03-24 14:27:00,
2013-03-24 10:32:00,72.0,70.5,29.77,WSW,256,6.0,6.0,95,0.00,,,0.00,260,Wunderground v.1.15,2013-03-24 14:32:00,
2013-03-24 10:42:00,72.1,70.6,29.78,SW,227,7.0,16.0,95,0.00,,,0.00,165,Wunderground v.1.15,2013-03-24 14:42:00,
2013-03-24 10:47:00,72.3,70.8,29.77,WSW,243,7.0,16.0,95,0.00,,,0.00,157,Wunderground v.1.15,2013-03-24 14:47:00,
2013-03-24 10:52:00,72.3,70.8,29.77,SSW,200,6.0,6.0,95,0.00,,,0.00,211,Wunderground v.1.15,2013-03-24 14:52:00,
2013-03-24 11:02:00,72.8,71.3,29.77,South,191,6.0,8.0,95,0.00,,,0.00,222,Wunderground v.1.15,2013-03-24 15:02:00,
2013-03-24 11:12:00,73.3,71.8,29.77,South,175,7.0,7.0,95,0.00,,,0.00,253,Wunderground v.1.15,2013-03-24 15:12:00,
2013-03-24 11:22:00,73.5,71.7,29.76,SSE,154,8.0,8.0,94,0.00,,,0.00,209,Wunderground v.1.15,2013-03-24 15:22:00,
2013-03-24 11:32:00,75.1,72.9,29.75,SSE,161,8.0,16.0,93,0.00,,,0.00,779,Wunderground v.1.15,2013-03-24 15:32:00,
2013-03-24 11:37:00,76.1,73.3,29.75,SW,217,7.0,16.0,91,0.00,,,0.00,618,Wunderground v.1.15,2013-03-24 15:37:00,
2013-03-24 11:47:00,77.7,73.5,29.75,South,179,7.0,12.0,87,0.00,,,0.00,707,Wunderground v.1.15,2013-03-24 15:47:00,
2013-03-24 11:52:00,78.3,73.4,29.75,WSW,244,7.0,9.0,85,0.00,,,0.00,859,Wunderground v.1.15,2013-03-24 15:52:00,
2013-03-24 12:02:00,78.5,73.3,29.75,SW,215,8.0,8.0,84,0.00,,,0.00,911,Wunderground v.1.15,2013-03-24 16:02:00,
2013-03-24 12:12:00,78.1,72.2,29.76,SW,224,9.0,10.0,82,0.00,,,0.00,911,Wunderground v.1.15,2013-03-24 16:12:00,
2013-03-24 12:17:00,78.6,72.6,29.76,SW,232,8.0,11.0,82,0.00,,,0.00,911,Wunderground v.1.15,2013-03-24 16:17:00,
2013-03-24 12:22:00,78.1,72.5,29.76,South,185,8.0,8.0,83,0.00,,,0.00,361,Wunderground v.1.15,2013-03-24 16:22:00,
2013-03-24 12:27:00,78.3,72.7,29.75,SSW,209,8.0,8.0,83,0.00,,,0.00,500,Wunderground v.1.15,2013-03-24 16:27:00,
2013-03-24 12:37:00,77.6,71.7,29.75,SSW,193,8.0,13.0,82,0.00,,,0.00,545,Wunderground v.1.15,2013-03-24 16:37:00,
2013-03-24 12:47:00,77.4,71.8,29.75,SSW,193,8.0,8.0,83,0.00,,,0.00,368,Wunderground v.1.15,2013-03-24 16:47:00,
2013-03-24 12:57:00,77.9,72.3,29.74,SSW,193,7.0,8.0,83,0.00,,,0.00,438,Wunderground v.1.15,2013-03-24 16:57:00,
2013-03-24 13:07:00,78.6,72.6,29.72,SSW,205,9.0,11.0,82,0.00,,,0.00,962,Wunderground v.1.15,2013-03-24 17:07:00,
2013-03-24 13:17:00,79.0,72.3,29.72,SSW,203,10.0,19.0,80,0.00,,,0.00,962,Wunderground v.1.15,2013-03-24 17:17:00,
2013-03-24 13:27:00,77.9,71.6,29.72,South,188,9.0,10.0,81,0.00,,,0.00,274,Wunderground v.1.15,2013-03-24 17:27:00,
2013-03-24 13:37:00,77.0,71.4,29.71,SW,232,9.0,9.0,83,0.00,,,0.00,297,Wunderground v.1.15,2013-03-24 17:37:00,
2013-03-24 13:42:00,76.7,71.5,29.70,SSE,162,10.0,13.0,84,0.00,,,0.00,229,Wunderground v.1.15,2013-03-24 17:42:00,
2013-03-24 13:47:00,76.7,71.8,29.70,South,169,10.0,14.0,85,0.00,,,0.00,343,Wunderground v.1.15,2013-03-24 17:47:00,
2013-03-24 13:52:00,76.7,71.8,29.70,SSW,212,10.0,16.0,85,0.00,,,0.00,253,Wunderground v.1.15,2013-03-24 17:52:00,
2013-03-24 14:03:00,76.7,71.8,29.70,SSW,206,10.0,10.0,85,0.00,,,0.00,204,Wunderground v.1.15,2013-03-24 18:03:00,
2013-03-24 14:12:00,76.8,71.9,29.70,South,182,9.0,12.0,85,0.00,,,0.00,276,Wunderground v.1.15,2013-03-24 18:12:00,
2013-03-24 14:17:00,76.8,71.9,29.69,SSW,208,9.0,9.0,85,0.00,,,0.00,204,Wunderground v.1.15,2013-03-24 18:17:00,
2013-03-24 14:27:00,76.3,71.5,29.69,SSW,202,7.0,7.0,85,0.00,,,0.00,178,Wunderground v.1.15,2013-03-24 18:27:00,
2013-03-24 14:37:00,76.1,71.6,29.68,West,270,8.0,8.0,86,0.00,,,0.00,222,Wunderground v.1.15,2013-03-24 18:37:00,
2013-03-24 14:42:00,76.1,71.6,29.68,South,184,8.0,8.0,86,0.00,,,0.00,206,Wunderground v.1.15,2013-03-24 18:42:00,
2013-03-24 14:52:00,75.8,71.3,29.69,SW,233,9.0,16.0,86,0.00,,,0.00,91,Wunderground v.1.15,2013-03-24 18:52:00,
2013-03-24 14:57:00,75.8,71.7,29.68,SW,222,9.0,9.0,87,0.00,,,0.00,181,Wunderground v.1.15,2013-03-24 18:57:00,
2013-03-24 15:02:00,75.8,71.7,29.68,SW,215,10.0,10.0,87,0.00,,,0.00,160,Wunderground v.1.15,2013-03-24 19:02:00,
2013-03-24 15:07:00,76.0,71.8,29.68,SW,216,9.0,10.0,87,0.00,,,0.00,271,Wunderground v.1.15,2013-03-24 19:07:00,
2013-03-24 15:17:00,76.5,72.0,29.67,SW,220,9.0,13.0,86,0.00,,,0.00,194,Wunderground v.1.15,2013-03-24 19:17:00,
2013-03-24 15:22:00,76.3,71.8,29.68,SW,234,10.0,10.0,86,0.00,,,0.00,236,Wunderground v.1.15,2013-03-24 19:22:00,
2013-03-24 15:32:00,76.3,71.8,29.67,SSW,213,9.0,9.0,86,0.00,,,0.00,299,Wunderground v.1.15,2013-03-24 19:32:00,
2013-03-24 15:37:00,76.5,72.0,29.67,SSE,167,9.0,10.0,86,0.00,,,0.00,187,Wunderground v.1.15,2013-03-24 19:37:00,
2013-03-24 15:42:00,76.7,71.8,29.68,SW,215,9.0,9.0,85,0.00,,,0.00,128,Wunderground v.1.15,2013-03-24 19:42:00,
2013-03-24 15:57:00,76.5,72.0,29.67,South,191,10.0,11.0,86,0.00,,,0.00,306,Wunderground v.1.15,2013-03-24 19:57:00,
2013-03-24 16:07:00,77.0,72.1,29.67,SW,215,9.0,10.0,85,0.00,,,0.00,306,Wunderground v.1.15,2013-03-24 20:07:00,
2013-03-24 16:17:00,77.2,72.0,29.67,SW,220,11.0,11.0,84,0.00,,,0.00,283,Wunderground v.1.15,2013-03-24 20:17:00,
2013-03-24 16:22:00,76.8,71.9,29.66,SW,220,11.0,11.0,85,0.00,,,0.00,218,Wunderground v.1.15,2013-03-24 20:22:00,
2013-03-24 16:27:00,76.8,71.9,29.66,SW,236,11.0,11.0,85,0.00,,,0.00,259,Wunderground v.1.15,2013-03-24 20:27:00,
2013-03-24 16:37:00,76.8,71.9,29.66,SW,216,11.0,13.0,85,0.00,,,0.00,213,Wunderground v.1.15,2013-03-24 20:37:00,
2013-03-24 16:42:00,76.8,71.9,29.66,SW,227,11.0,22.0,85,0.00,,,0.00,220,Wunderground v.1.15,2013-03-24 20:42:00,
2013-03-24 16:52:00,76.7,71.8,29.66,South,176,11.0,13.0,85,0.00,,,0.00,304,Wunderground v.1.15,2013-03-24 20:52:00,
2013-03-24 16:57:00,76.7,71.8,29.66,SW,226,12.0,13.0,85,0.00,,,0.00,304,Wunderground v.1.15,2013-03-24 20:57:00,
2013-03-24 17:07:00,76.5,71.7,29.66,SW,229,10.0,12.0,85,0.00,,,0.00,208,Wunderground v.1.15,2013-03-24 21:07:00,
2013-03-24 17:12:00,76.3,71.5,29.66,SSW,213,11.0,12.0,85,0.00,,,0.00,77,Wunderground v.1.15,2013-03-24 21:12:00,
2013-03-24 17:22:00,76.0,71.5,29.66,SSW,205,10.0,10.0,86,0.00,,,0.00,84,Wunderground v.1.15,2013-03-24 21:22:00,
2013-03-24 17:32:00,75.8,71.3,29.66,SSW,205,8.0,9.0,86,0.00,,,0.00,155,Wunderground v.1.15,2013-03-24 21:32:00,
2013-03-24 17:42:00,75.8,71.7,29.67,SW,229,9.0,9.0,87,0.00,,,0.00,179,Wunderground v.1.15,2013-03-24 21:42:00,
2013-03-24 17:47:00,75.6,71.5,29.66,South,179,9.0,9.0,87,0.00,,,0.00,113,Wunderground v.1.15,2013-03-24 21:47:00,
2013-03-24 17:57:00,75.4,71.6,29.67,SW,226,8.0,11.0,88,0.00,,,0.00,90,Wunderground v.1.15,2013-03-24 21:57:00,
2013-03-24 18:02:00,75.4,71.6,29.67,SW,232,9.0,10.0,88,0.00,,,0.00,83,Wunderground v.1.15,2013-03-24 22:02:00,
2013-03-24 18:07:00,75.4,71.6,29.67,SW,216,8.0,10.0,88,0.00,,,0.00,79,Wunderground v.1.15,2013-03-24 22:07:00,
2013-03-24 18:17:00,75.3,71.5,29.67,WSW,248,9.0,17.0,88,0.00,,,0.00,93,Wunderground v.1.15,2013-03-24 22:17:00,
2013-03-24 18:27:00,75.3,71.5,29.67,WSW,250,9.0,11.0,88,0.00,,,0.00,79,Wunderground v.1.15,2013-03-24 22:27:00,
2013-03-24 18:32:00,75.1,71.3,29.67,SW,234,9.0,9.0,88,0.00,,,0.00,58,Wunderground v.1.15,2013-03-24 22:32:00,
2013-03-24 18:37:00,74.9,71.1,29.67,WSW,239,9.0,9.0,88,0.00,,,0.00,55,Wunderground v.1.15,2013-03-24 22:37:00,
2013-03-24 18:47:00,74.7,71.2,29.68,WSW,246,7.0,14.0,89,0.00,,,0.00,28,Wunderground v.1.15,2013-03-24 22:47:00,
2013-03-24 18:52:00,74.7,71.2,29.68,WSW,246,6.0,9.0,89,0.00,,,0.00,56,Wunderground v.1.15,2013-03-24 22:52:00,
2013-03-24 18:57:00,74.6,71.1,29.68,West,265,6.0,9.0,89,0.00,,,0.00,18,Wunderground v.1.15,2013-03-24 22:57:00,
2013-03-24 19:02:00,74.6,71.1,29.68,SSW,212,6.0,6.0,89,0.00,,,0.00,32,Wunderground v.1.15,2013-03-24 23:02:00,
2013-03-24 19:12:00,74.6,71.1,29.68,SW,236,6.0,7.0,89,0.00,,,0.00,25,Wunderground v.1.15,2013-03-24 23:12:00,
2013-03-24 19:22:00,74.6,71.1,29.69,SW,222,5.0,6.0,89,0.00,,,0.00,16,Wunderground v.1.15,2013-03-24 23:22:00,
2013-03-24 19:27:00,74.6,71.5,29.69,WSW,239,5.0,7.0,90,0.00,,,0.00,0,Wunderground v.1.15,2013-03-24 23:27:00,
2013-03-24 19:37:00,74.4,71.3,29.70,SW,230,6.0,7.0,90,0.00,,,0.00,0,Wunderground v.1.15,2013-03-24 23:37:00,
2013-03-24 19:47:00,74.2,71.1,29.70,SW,216,6.0,8.0,90,0.00,,,0.00,0,Wunderground v.1.15,2013-03-24 23:47:00,
2013-03-24 19:57:00,74.0,70.9,29.70,WSW,248,5.0,6.0,90,0.00,,,0.00,0,Wunderground v.1.15,2013-03-24 23:57:00,
2013-03-24 20:07:00,73.9,70.8,29.70,SW,234,4.0,5.0,90,0.00,,,0.00,0,Wunderground v.1.15,2013-03-25 00:07:00,
2013-03-24 20:12:00,73.9,70.8,29.71,West,271,2.0,5.0,90,0.00,,,0.00,0,Wunderground v.1.15,2013-03-25 00:12:00,
2013-03-24 20:22:00,73.7,70.6,29.72,West,274,5.0,5.0,90,0.00,,,0.00,0,Wunderground v.1.15,2013-03-25 00:22:00,
2013-03-24 20:27:00,73.7,70.9,29.72,WSW,256,5.0,5.0,91,0.00,,,0.00,0,Wunderground v.1.15,2013-03-25 00:27:00,
2013-03-24 20:32:00,73.5,70.7,29.72,West,278,4.0,7.0,91,0.00,,,0.00,0,Wunderground v.1.15,2013-03-25 00:32:00,
2013-03-24 20:42:00,73.2,70.4,29.72,NW,326,4.0,4.0,91,0.00,,,0.00,0,Wunderground v.1.15,2013-03-25 00:42:00,
2013-03-24 20:52:00,73.0,70.2,29.72,SW,229,3.0,3.0,91,0.00,,,0.00,0,Wunderground v.1.15,2013-03-25 00:52:00,
2013-03-24 21:02:00,72.7,69.9,29.73,West,275,1.0,3.0,91,0.00,,,0.00,0,Wunderground v.1.15,2013-03-25 01:02:00,
2013-03-24 21:12:00,72.5,69.7,29.73,NW,316,2.0,2.0,91,0.00,,,0.00,0,Wunderground v.1.15,2013-03-25 01:12:00,
2013-03-24 21:17:00,72.5,69.7,29.73,WNW,302,3.0,3.0,91,0.00,,,0.00,0,Wunderground v.1.15,2013-03-25 01:17:00,
2013-03-24 21:27:00,72.3,69.5,29.74,NW,315,4.0,5.0,91,0.00,,,0.00,0,Wunderground v.1.15,2013-03-25 01:27:00,
2013-03-24 21:32:00,72.3,69.5,29.74,NW,323,4.0,4.0,91,0.00,,,0.00,0,Wunderground v.1.15,2013-03-25 01:32:00,
2013-03-24 21:42:00,72.1,69.3,29.75,WNW,289,4.0,5.0,91,0.00,,,0.00,0,Wunderground v.1.15,2013-03-25 01:42:00,
2013-03-24 21:52:00,71.8,69.3,29.75,West,281,4.0,7.0,92,0.00,,,0.00,0,Wunderground v.1.15,2013-03-25 01:52:00,
2013-03-24 21:57:00,71.6,69.2,29.75,West,278,4.0,7.0,92,0.00,,,0.00,0,Wunderground v.1.15,2013-03-25 01:57:00,
2013-03-24 22:02:00,71.3,68.9,29.75,NW,319,4.0,4.0,92,0.00,,,0.00,0,Wunderground v.1.15,2013-03-25 02:02:00,
2013-03-24 22:12:00,71.1,68.3,29.75,NNW,332,5.0,6.0,91,0.00,,,0.00,0,Wunderground v.1.15,2013-03-25 02:12:00,
2013-03-24 22:17:00,70.8,68.0,29.76,NW,309,6.0,6.0,91,0.00,,,0.00,0,Wunderground v.1.15,2013-03-25 02:17:00,
2013-03-24 22:27:00,70.8,68.0,29.76,NW,315,5.0,7.0,91,0.00,,,0.00,0,Wunderground v.1.15,2013-03-25 02:27:00,
2013-03-24 22:32:00,70.6,67.8,29.76,NW,316,5.0,5.0,91,0.00,,,0.00,0,Wunderground v.1.15,2013-03-25 02:32:00,
2013-03-24 22:42:00,70.6,67.8,29.76,WNW,294,4.0,5.0,91,0.00,,,0.00,0,Wunderground v.1.15,2013-03-25 02:42:00,
2013-03-24 22:47:00,70.6,67.5,29.76,West,277,4.0,5.0,90,0.00,,,0.00,0,Wunderground v.1.15,2013-03-25 02:47:00,
2013-03-24 22:57:00,70.4,67.3,29.76,WNW,285,3.0,8.0,90,0.00,,,0.00,0,Wunderground v.1.15,2013-03-25 02:57:00,
2013-03-24 23:02:00,70.4,67.3,29.76,WSW,246,3.0,3.0,90,0.00,,,0.00,0,Wunderground v.1.15,2013-03-25 03:02:00,
2013-03-24 23:12:00,70.3,67.2,29.76,WSW,257,2.0,2.0,90,0.00,,,0.00,0,Wunderground v.1.15,2013-03-25 03:12:00,
2013-03-24 23:22:00,70.1,67.0,29.76,WSW,244,1.0,1.0,90,0.00,,,0.00,0,Wunderground v.1.15,2013-03-25 03:22:00,
2013-03-24 23:27:00,70.1,67.0,29.76,WSW,244,1.0,1.0,90,0.00,,,0.00,0,Wunderground v.1.15,2013-03-25 03:27:00,
2013-03-24 23:32:00,69.9,66.8,29.76,WSW,244,1.0,1.0,90,0.00,,,0.00,0,Wunderground v.1.15,2013-03-25 03:32:00,
2013-03-24 23:37:00,69.8,66.7,29.76,WSW,244,1.0,1.0,90,0.00,,,0.00,0,Wunderground v.1.15,2013-03-25 03:37:00,
2013-03-24 23:47:00,69.4,66.3,29.76,West,270,1.0,2.0,90,0.00,,,0.00,0,Wunderground v.1.15,2013-03-25 03:47:00,
2013-03-24 23:57:00,69.3,66.2,29.76,West,264,1.0,2.0,90,0.00,,,0.00,0,Wunderground v.1.15,2013-03-25 03:57:00,